sensor_id;sensor_type;location;lat;lon;timestamp;P1;durP1;ratioP1;P2;durP2;ratioP2
64401;SDS011;50724;42.376;23.768;2024-02-21T00:00:30;24.75;;;10.48;;
64401;SDS011;50724;42.376;23.768;2024-02-21T00:03:30;29.92;;;11.95;;
64401;SDS011;50724;42.376;23.768;2024-02-21T00:06:31;22.30;;;10.38;;
64401;SDS011;50724;42.376;23.768;2024-02-21T00:09:32;21.42;;;8.98;;
64401;SDS011;50724;42.376;23.768;2024-02-21T00:12:32;19.35;;;8.48;;
64401;SDS011;50724;42.376;23.768;2024-02-21T00:15:33;18.58;;;8.43;;
64401;SDS011;50724;42.376;23.768;2024-02-21T00:18:33;15.93;;;7.55;;
64401;SDS011;50724;42.376;23.768;2024-02-21T00:21:34;18.63;;;8.40;;
64401;SDS011;50724;42.376;23.768;2024-02-21T00:24:34;20.75;;;8.35;;
64401;SDS011;50724;42.376;23.768;2024-02-21T00:27:35;17.73;;;7.97;;
64401;SDS011;50724;42.376;23.768;2024-02-21T00:30:35;12.65;;;5.70;;
64401;SDS011;50724;42.376;23.768;2024-02-21T00:33:38;12.38;;;6.20;;
64401;SDS011;50724;42.376;23.768;2024-02-21T00:36:38;9.65;;;4.18;;
64401;SDS011;50724;42.376;23.768;2024-02-21T00:39:39;8.00;;;3.72;;
64401;SDS011;50724;42.376;23.768;2024-02-21T00:42:39;6.40;;;3.63;;
64401;SDS011;50724;42.376;23.768;2024-02-21T00:45:39;7.53;;;3.85;;
64401;SDS011;50724;42.376;23.768;2024-02-21T00:48:40;10.05;;;4.60;;
64401;SDS011;50724;42.376;23.768;2024-02-21T00:51:40;6.63;;;3.08;;
64401;SDS011;50724;42.376;23.768;2024-02-21T00:54:41;7.70;;;3.95;;
64401;SDS011;50724;42.376;23.768;2024-02-21T00:57:41;9.90;;;4.35;;
64401;SDS011;50724;42.376;23.768;2024-02-21T01:00:42;10.20;;;4.35;;
64401;SDS011;50724;42.376;23.768;2024-02-21T01:03:42;10.38;;;4.80;;
64401;SDS011;50724;42.376;23.768;2024-02-21T01:06:42;9.67;;;4.20;;
64401;SDS011;50724;42.376;23.768;2024-02-21T01:09:44;6.25;;;3.25;;
64401;SDS011;50724;42.376;23.768;2024-02-21T01:12:44;7.07;;;3.50;;
64401;SDS011;50724;42.376;23.768;2024-02-21T01:15:45;8.57;;;4.03;;
64401;SDS011;50724;42.376;23.768;2024-02-21T01:18:45;10.30;;;4.15;;
64401;SDS011;50724;42.376;23.768;2024-02-21T01:21:45;8.13;;;3.83;;
64401;SDS011;50724;42.376;23.768;2024-02-21T01:24:46;9.27;;;3.95;;
64401;SDS011;50724;42.376;23.768;2024-02-21T01:27:46;9.10;;;4.07;;
64401;SDS011;50724;42.376;23.768;2024-02-21T01:30:47;10.80;;;4.27;;
64401;SDS011;50724;42.376;23.768;2024-02-21T01:33:47;7.57;;;4.00;;
64401;SDS011;50724;42.376;23.768;2024-02-21T01:36:48;6.15;;;3.10;;
64401;SDS011;50724;42.376;23.768;2024-02-21T01:39:48;6.75;;;3.63;;
64401;SDS011;50724;42.376;23.768;2024-02-21T01:42:49;8.80;;;3.78;;
64401;SDS011;50724;42.376;23.768;2024-02-21T01:45:50;8.10;;;3.60;;
64401;SDS011;50724;42.376;23.768;2024-02-21T01:48:53;6.47;;;3.35;;
64401;SDS011;50724;42.376;23.768;2024-02-21T01:51:55;8.50;;;3.40;;
64401;SDS011;50724;42.376;23.768;2024-02-21T01:54:56;7.03;;;3.65;;
64401;SDS011;50724;42.376;23.768;2024-02-21T01:57:57;8.55;;;4.13;;
64401;SDS011;50724;42.376;23.768;2024-02-21T02:00:58;8.07;;;3.83;;
64401;SDS011;50724;42.376;23.768;2024-02-21T02:03:59;9.07;;;3.90;;
64401;SDS011;50724;42.376;23.768;2024-02-21T02:07:00;6.95;;;3.38;;
64401;SDS011;50724;42.376;23.768;2024-02-21T02:10:03;7.18;;;3.42;;
64401;SDS011;50724;42.376;23.768;2024-02-21T02:13:03;7.88;;;3.30;;
64401;SDS011;50724;42.376;23.768;2024-02-21T02:16:04;7.78;;;3.92;;
64401;SDS011;50724;42.376;23.768;2024-02-21T02:19:05;7.22;;;3.35;;
64401;SDS011;50724;42.376;23.768;2024-02-21T02:22:09;6.40;;;3.55;;
64401;SDS011;50724;42.376;23.768;2024-02-21T02:25:14;6.65;;;3.55;;
64401;SDS011;50724;42.376;23.768;2024-02-21T02:28:14;7.78;;;3.05;;
64401;SDS011;50724;42.376;23.768;2024-02-21T02:31:15;7.32;;;3.75;;
64401;SDS011;50724;42.376;23.768;2024-02-21T02:34:16;10.13;;;3.92;;
64401;SDS011;50724;42.376;23.768;2024-02-21T02:37:16;7.30;;;3.50;;
64401;SDS011;50724;42.376;23.768;2024-02-21T02:40:20;7.60;;;3.05;;
64401;SDS011;50724;42.376;23.768;2024-02-21T02:43:20;8.23;;;3.47;;
64401;SDS011;50724;42.376;23.768;2024-02-21T02:46:21;6.18;;;3.10;;
64401;SDS011;50724;42.376;23.768;2024-02-21T02:49:21;7.90;;;3.20;;
64401;SDS011;50724;42.376;23.768;2024-02-21T02:52:21;5.38;;;2.70;;
64401;SDS011;50724;42.376;23.768;2024-02-21T02:55:22;7.75;;;3.70;;
64401;SDS011;50724;42.376;23.768;2024-02-21T02:58:23;7.50;;;3.10;;
64401;SDS011;50724;42.376;23.768;2024-02-21T03:01:23;6.28;;;3.20;;
64401;SDS011;50724;42.376;23.768;2024-02-21T03:04:24;7.03;;;3.55;;
64401;SDS011;50724;42.376;23.768;2024-02-21T03:07:25;6.38;;;3.47;;
64401;SDS011;50724;42.376;23.768;2024-02-21T03:10:25;7.05;;;3.50;;
64401;SDS011;50724;42.376;23.768;2024-02-21T03:13:26;7.13;;;3.25;;
64401;SDS011;50724;42.376;23.768;2024-02-21T03:16:26;6.75;;;3.30;;
64401;SDS011;50724;42.376;23.768;2024-02-21T03:19:27;7.53;;;3.58;;
64401;SDS011;50724;42.376;23.768;2024-02-21T03:22:28;6.10;;;2.85;;
64401;SDS011;50724;42.376;23.768;2024-02-21T03:25:37;7.57;;;3.50;;
64401;SDS011;50724;42.376;23.768;2024-02-21T03:28:38;6.50;;;3.38;;
64401;SDS011;50724;42.376;23.768;2024-02-21T03:31:39;6.60;;;3.50;;
64401;SDS011;50724;42.376;23.768;2024-02-21T03:34:40;6.28;;;2.88;;
64401;SDS011;50724;42.376;23.768;2024-02-21T03:37:40;6.80;;;3.08;;
64401;SDS011;50724;42.376;23.768;2024-02-21T03:40:41;6.07;;;3.17;;
64401;SDS011;50724;42.376;23.768;2024-02-21T03:43:49;7.40;;;3.60;;
64401;SDS011;50724;42.376;23.768;2024-02-21T03:46:50;6.50;;;3.13;;
64401;SDS011;50724;42.376;23.768;2024-02-21T03:49:51;8.65;;;3.53;;
64401;SDS011;50724;42.376;23.768;2024-02-21T03:52:51;7.40;;;3.40;;
64401;SDS011;50724;42.376;23.768;2024-02-21T03:55:51;6.97;;;3.43;;
64401;SDS011;50724;42.376;23.768;2024-02-21T03:58:52;8.00;;;3.95;;
64401;SDS011;50724;42.376;23.768;2024-02-21T04:01:52;7.57;;;3.72;;
64401;SDS011;50724;42.376;23.768;2024-02-21T04:04:53;9.50;;;4.18;;
64401;SDS011;50724;42.376;23.768;2024-02-21T04:07:53;10.50;;;4.30;;
64401;SDS011;50724;42.376;23.768;2024-02-21T04:11:02;9.63;;;4.68;;
64401;SDS011;50724;42.376;23.768;2024-02-21T04:14:03;11.35;;;4.88;;
64401;SDS011;50724;42.376;23.768;2024-02-21T04:17:03;11.88;;;5.57;;
64401;SDS011;50724;42.376;23.768;2024-02-21T04:20:05;11.80;;;5.07;;
64401;SDS011;50724;42.376;23.768;2024-02-21T04:23:14;13.18;;;4.90;;
64401;SDS011;50724;42.376;23.768;2024-02-21T04:26:15;14.55;;;6.03;;
64401;SDS011;50724;42.376;23.768;2024-02-21T04:29:15;12.32;;;6.03;;
64401;SDS011;50724;42.376;23.768;2024-02-21T04:32:16;10.35;;;4.40;;
64401;SDS011;50724;42.376;23.768;2024-02-21T04:35:16;11.40;;;5.15;;
64401;SDS011;50724;42.376;23.768;2024-02-21T04:38:17;10.55;;;4.90;;
64401;SDS011;50724;42.376;23.768;2024-02-21T04:41:17;11.98;;;4.85;;
64401;SDS011;50724;42.376;23.768;2024-02-21T04:44:18;10.98;;;4.78;;
64401;SDS011;50724;42.376;23.768;2024-02-21T04:47:21;11.95;;;5.13;;
64401;SDS011;50724;42.376;23.768;2024-02-21T04:50:31;10.95;;;5.03;;
64401;SDS011;50724;42.376;23.768;2024-02-21T04:53:32;10.15;;;4.65;;
64401;SDS011;50724;42.376;23.768;2024-02-21T04:56:32;14.18;;;5.50;;
64401;SDS011;50724;42.376;23.768;2024-02-21T04:59:33;12.85;;;5.53;;
64401;SDS011;50724;42.376;23.768;2024-02-21T05:02:35;13.90;;;5.65;;
64401;SDS011;50724;42.376;23.768;2024-02-21T05:05:35;11.00;;;4.72;;
64401;SDS011;50724;42.376;23.768;2024-02-21T05:08:36;11.18;;;5.18;;
64401;SDS011;50724;42.376;23.768;2024-02-21T05:11:36;15.50;;;6.30;;
64401;SDS011;50724;42.376;23.768;2024-02-21T05:14:40;13.52;;;6.28;;
64401;SDS011;50724;42.376;23.768;2024-02-21T05:17:49;11.27;;;5.32;;
64401;SDS011;50724;42.376;23.768;2024-02-21T05:20:49;14.40;;;6.15;;
64401;SDS011;50724;42.376;23.768;2024-02-21T05:23:50;13.25;;;5.32;;
64401;SDS011;50724;42.376;23.768;2024-02-21T05:26:51;14.48;;;6.25;;
64401;SDS011;50724;42.376;23.768;2024-02-21T05:29:51;11.88;;;6.15;;
64401;SDS011;50724;42.376;23.768;2024-02-21T05:32:53;14.32;;;6.03;;
64401;SDS011;50724;42.376;23.768;2024-02-21T05:35:54;14.15;;;6.68;;
64401;SDS011;50724;42.376;23.768;2024-02-21T05:38:54;16.20;;;6.43;;
64401;SDS011;50724;42.376;23.768;2024-02-21T05:41:55;13.55;;;6.68;;
64401;SDS011;50724;42.376;23.768;2024-02-21T05:44:55;15.23;;;6.78;;
64401;SDS011;50724;42.376;23.768;2024-02-21T05:47:55;11.83;;;5.80;;
64401;SDS011;50724;42.376;23.768;2024-02-21T05:50:57;14.25;;;6.07;;
64401;SDS011;50724;42.376;23.768;2024-02-21T05:53:57;13.05;;;5.75;;
64401;SDS011;50724;42.376;23.768;2024-02-21T05:56:58;11.70;;;5.80;;
64401;SDS011;50724;42.376;23.768;2024-02-21T05:59:58;15.27;;;7.32;;
64401;SDS011;50724;42.376;23.768;2024-02-21T06:02:59;14.10;;;6.50;;
64401;SDS011;50724;42.376;23.768;2024-02-21T06:05:59;13.48;;;6.57;;
64401;SDS011;50724;42.376;23.768;2024-02-21T06:09:00;13.43;;;6.45;;
64401;SDS011;50724;42.376;23.768;2024-02-21T06:12:02;18.42;;;6.65;;
64401;SDS011;50724;42.376;23.768;2024-02-21T06:15:03;11.32;;;5.50;;
64401;SDS011;50724;42.376;23.768;2024-02-21T06:18:04;17.10;;;7.13;;
64401;SDS011;50724;42.376;23.768;2024-02-21T06:21:04;15.25;;;6.82;;
64401;SDS011;50724;42.376;23.768;2024-02-21T06:24:05;12.05;;;5.43;;
64401;SDS011;50724;42.376;23.768;2024-02-21T06:27:06;13.48;;;6.50;;
64401;SDS011;50724;42.376;23.768;2024-02-21T06:30:07;12.38;;;5.55;;
64401;SDS011;50724;42.376;23.768;2024-02-21T06:33:08;16.10;;;6.93;;
64401;SDS011;50724;42.376;23.768;2024-02-21T06:36:08;16.77;;;6.68;;
64401;SDS011;50724;42.376;23.768;2024-02-21T06:39:09;13.40;;;6.97;;
64401;SDS011;50724;42.376;23.768;2024-02-21T06:42:11;18.27;;;7.13;;
64401;SDS011;50724;42.376;23.768;2024-02-21T06:45:11;16.83;;;7.00;;
64401;SDS011;50724;42.376;23.768;2024-02-21T06:48:12;16.13;;;6.60;;
64401;SDS011;50724;42.376;23.768;2024-02-21T06:51:12;12.50;;;5.85;;
64401;SDS011;50724;42.376;23.768;2024-02-21T06:54:12;15.27;;;6.10;;
64401;SDS011;50724;42.376;23.768;2024-02-21T06:57:13;10.77;;;5.20;;
64401;SDS011;50724;42.376;23.768;2024-02-21T07:00:14;13.98;;;6.10;;
64401;SDS011;50724;42.376;23.768;2024-02-21T07:03:15;12.48;;;6.68;;
64401;SDS011;50724;42.376;23.768;2024-02-21T07:06:16;14.93;;;4.78;;
64401;SDS011;50724;42.376;23.768;2024-02-21T07:09:16;14.77;;;6.90;;
64401;SDS011;50724;42.376;23.768;2024-02-21T07:12:17;12.88;;;6.53;;
64401;SDS011;50724;42.376;23.768;2024-02-21T07:15:19;14.70;;;7.30;;
64401;SDS011;50724;42.376;23.768;2024-02-21T07:18:19;13.88;;;6.60;;
64401;SDS011;50724;42.376;23.768;2024-02-21T07:21:20;13.23;;;6.15;;
64401;SDS011;50724;42.376;23.768;2024-02-21T07:24:20;9.98;;;5.00;;
64401;SDS011;50724;42.376;23.768;2024-02-21T07:27:21;14.05;;;5.95;;
64401;SDS011;50724;42.376;23.768;2024-02-21T07:30:21;9.70;;;4.70;;
64401;SDS011;50724;42.376;23.768;2024-02-21T07:33:21;11.63;;;5.43;;
64401;SDS011;50724;42.376;23.768;2024-02-21T07:36:31;12.10;;;5.57;;
64401;SDS011;50724;42.376;23.768;2024-02-21T07:39:31;10.45;;;4.85;;
64401;SDS011;50724;42.376;23.768;2024-02-21T07:42:37;10.18;;;5.03;;
64401;SDS011;50724;42.376;23.768;2024-02-21T07:45:37;10.05;;;4.63;;
64401;SDS011;50724;42.376;23.768;2024-02-21T07:48:39;11.68;;;5.90;;
64401;SDS011;50724;42.376;23.768;2024-02-21T07:51:39;9.98;;;5.53;;
64401;SDS011;50724;42.376;23.768;2024-02-21T07:54:40;10.32;;;5.30;;
64401;SDS011;50724;42.376;23.768;2024-02-21T07:57:41;12.02;;;5.28;;
64401;SDS011;50724;42.376;23.768;2024-02-21T08:00:41;11.05;;;4.55;;
64401;SDS011;50724;42.376;23.768;2024-02-21T08:03:42;9.68;;;5.15;;
64401;SDS011;50724;42.376;23.768;2024-02-21T08:06:42;13.63;;;6.05;;
64401;SDS011;50724;42.376;23.768;2024-02-21T08:09:52;8.25;;;4.35;;
64401;SDS011;50724;42.376;23.768;2024-02-21T08:12:53;9.05;;;4.30;;
64401;SDS011;50724;42.376;23.768;2024-02-21T08:15:53;8.90;;;4.13;;
64401;SDS011;50724;42.376;23.768;2024-02-21T08:18:54;9.63;;;4.35;;
64401;SDS011;50724;42.376;23.768;2024-02-21T08:21:54;7.47;;;4.05;;
64401;SDS011;50724;42.376;23.768;2024-02-21T08:24:55;14.10;;;5.32;;
64401;SDS011;50724;42.376;23.768;2024-02-21T08:27:57;12.43;;;4.95;;
64401;SDS011;50724;42.376;23.768;2024-02-21T08:33:58;8.97;;;3.57;;
64401;SDS011;50724;42.376;23.768;2024-02-21T08:37:02;9.20;;;4.22;;
64401;SDS011;50724;42.376;23.768;2024-02-21T08:40:03;10.73;;;4.50;;
64401;SDS011;50724;42.376;23.768;2024-02-21T08:43:08;7.82;;;3.90;;
64401;SDS011;50724;42.376;23.768;2024-02-21T08:46:08;8.77;;;3.50;;
64401;SDS011;50724;42.376;23.768;2024-02-21T08:49:10;8.82;;;3.83;;
64401;SDS011;50724;42.376;23.768;2024-02-21T08:52:10;8.13;;;3.90;;
64401;SDS011;50724;42.376;23.768;2024-02-21T08:55:10;8.77;;;4.37;;
64401;SDS011;50724;42.376;23.768;2024-02-21T08:58:11;11.50;;;5.00;;
64401;SDS011;50724;42.376;23.768;2024-02-21T09:01:12;11.88;;;5.82;;
64401;SDS011;50724;42.376;23.768;2024-02-21T09:04:12;8.07;;;3.97;;
64401;SDS011;50724;42.376;23.768;2024-02-21T09:07:13;9.15;;;4.93;;
64401;SDS011;50724;42.376;23.768;2024-02-21T09:10:13;11.25;;;4.78;;
64401;SDS011;50724;42.376;23.768;2024-02-21T09:13:14;8.55;;;3.60;;
64401;SDS011;50724;42.376;23.768;2024-02-21T09:16:14;6.87;;;3.43;;
64401;SDS011;50724;42.376;23.768;2024-02-21T09:19:23;7.22;;;3.60;;
64401;SDS011;50724;42.376;23.768;2024-02-21T09:22:24;8.07;;;3.40;;
64401;SDS011;50724;42.376;23.768;2024-02-21T09:25:24;6.72;;;3.25;;
64401;SDS011;50724;42.376;23.768;2024-02-21T09:28:25;6.50;;;3.30;;
64401;SDS011;50724;42.376;23.768;2024-02-21T09:31:25;6.97;;;3.15;;
64401;SDS011;50724;42.376;23.768;2024-02-21T09:34:26;6.32;;;2.92;;
64401;SDS011;50724;42.376;23.768;2024-02-21T09:37:27;8.68;;;3.45;;
64401;SDS011;50724;42.376;23.768;2024-02-21T09:40:28;7.30;;;3.47;;
64401;SDS011;50724;42.376;23.768;2024-02-21T09:43:28;7.13;;;3.22;;
64401;SDS011;50724;42.376;23.768;2024-02-21T09:46:39;6.80;;;3.28;;
64401;SDS011;50724;42.376;23.768;2024-02-21T09:49:45;8.32;;;3.45;;
64401;SDS011;50724;42.376;23.768;2024-02-21T09:52:45;8.52;;;3.30;;
64401;SDS011;50724;42.376;23.768;2024-02-21T09:55:48;7.63;;;3.47;;
64401;SDS011;50724;42.376;23.768;2024-02-21T09:58:48;6.10;;;3.08;;
64401;SDS011;50724;42.376;23.768;2024-02-21T10:01:49;7.28;;;3.38;;
64401;SDS011;50724;42.376;23.768;2024-02-21T10:04:50;5.90;;;2.50;;
64401;SDS011;50724;42.376;23.768;2024-02-21T10:07:50;6.57;;;3.13;;
64401;SDS011;50724;42.376;23.768;2024-02-21T10:10:51;5.88;;;3.13;;
64401;SDS011;50724;42.376;23.768;2024-02-21T10:14:05;7.15;;;3.60;;
64401;SDS011;50724;42.376;23.768;2024-02-21T10:17:06;5.90;;;2.47;;
64401;SDS011;50724;42.376;23.768;2024-02-21T10:20:09;6.50;;;2.58;;
64401;SDS011;50724;42.376;23.768;2024-02-21T10:23:10;7.30;;;3.05;;
64401;SDS011;50724;42.376;23.768;2024-02-21T10:26:11;5.90;;;2.75;;
64401;SDS011;50724;42.376;23.768;2024-02-21T10:29:12;5.15;;;2.45;;
64401;SDS011;50724;42.376;23.768;2024-02-21T10:32:13;6.88;;;2.75;;
64401;SDS011;50724;42.376;23.768;2024-02-21T10:35:26;7.15;;;3.22;;
64401;SDS011;50724;42.376;23.768;2024-02-21T10:38:28;6.82;;;3.30;;
64401;SDS011;50724;42.376;23.768;2024-02-21T10:41:28;7.55;;;2.95;;
64401;SDS011;50724;42.376;23.768;2024-02-21T10:44:32;6.60;;;2.85;;
64401;SDS011;50724;42.376;23.768;2024-02-21T10:47:33;6.07;;;2.45;;
64401;SDS011;50724;42.376;23.768;2024-02-21T10:51:20;6.95;;;3.13;;
64401;SDS011;50724;42.376;23.768;2024-02-21T10:57:15;6.32;;;3.17;;
64401;SDS011;50724;42.376;23.768;2024-02-21T11:00:17;6.05;;;2.80;;
64401;SDS011;50724;42.376;23.768;2024-02-21T11:03:18;7.65;;;4.15;;
64401;SDS011;50724;42.376;23.768;2024-02-21T11:06:20;9.80;;;4.40;;
64401;SDS011;50724;42.376;23.768;2024-02-21T11:09:31;10.85;;;4.88;;
64401;SDS011;50724;42.376;23.768;2024-02-21T11:12:33;9.88;;;4.90;;
64401;SDS011;50724;42.376;23.768;2024-02-21T11:15:33;13.35;;;6.13;;
64401;SDS011;50724;42.376;23.768;2024-02-21T11:18:34;18.90;;;9.15;;
64401;SDS011;50724;42.376;23.768;2024-02-21T11:21:36;15.07;;;7.97;;
64401;SDS011;50724;42.376;23.768;2024-02-21T11:24:37;18.30;;;8.98;;
64401;SDS011;50724;42.376;23.768;2024-02-21T11:27:38;13.85;;;6.78;;
64401;SDS011;50724;42.376;23.768;2024-02-21T11:30:39;16.27;;;8.98;;
64401;SDS011;50724;42.376;23.768;2024-02-21T11:33:40;14.93;;;7.30;;
64401;SDS011;50724;42.376;23.768;2024-02-21T11:36:47;18.10;;;7.43;;
64401;SDS011;50724;42.376;23.768;2024-02-21T11:39:52;17.55;;;8.77;;
64401;SDS011;50724;42.376;23.768;2024-02-21T11:42:57;14.45;;;7.38;;
64401;SDS011;50724;42.376;23.768;2024-02-21T11:45:59;15.85;;;7.88;;
64401;SDS011;50724;42.376;23.768;2024-02-21T11:49:01;15.30;;;7.28;;
64401;SDS011;50724;42.376;23.768;2024-02-21T11:52:03;13.63;;;5.93;;
64401;SDS011;50724;42.376;23.768;2024-02-21T11:55:05;8.32;;;4.03;;
64401;SDS011;50724;42.376;23.768;2024-02-21T11:58:08;7.57;;;3.10;;
64401;SDS011;50724;42.376;23.768;2024-02-21T12:01:08;7.75;;;3.70;;
64401;SDS011;50724;42.376;23.768;2024-02-21T12:04:09;8.38;;;3.88;;
64401;SDS011;50724;42.376;23.768;2024-02-21T12:07:10;9.15;;;3.63;;
64401;SDS011;50724;42.376;23.768;2024-02-21T12:10:11;9.27;;;4.43;;
64401;SDS011;50724;42.376;23.768;2024-02-21T12:13:12;8.60;;;4.63;;
64401;SDS011;50724;42.376;23.768;2024-02-21T12:16:16;7.82;;;4.20;;
64401;SDS011;50724;42.376;23.768;2024-02-21T12:19:18;9.18;;;4.40;;
64401;SDS011;50724;42.376;23.768;2024-02-21T12:22:18;10.60;;;4.60;;
64401;SDS011;50724;42.376;23.768;2024-02-21T12:25:20;10.02;;;4.60;;
64401;SDS011;50724;42.376;23.768;2024-02-21T12:28:27;9.95;;;4.55;;
64401;SDS011;50724;42.376;23.768;2024-02-21T12:31:27;8.93;;;4.20;;
64401;SDS011;50724;42.376;23.768;2024-02-21T12:34:28;8.20;;;3.58;;
64401;SDS011;50724;42.376;23.768;2024-02-21T12:37:31;7.72;;;3.47;;
64401;SDS011;50724;42.376;23.768;2024-02-21T12:40:33;8.23;;;3.40;;
64401;SDS011;50724;42.376;23.768;2024-02-21T12:43:33;7.78;;;3.60;;
64401;SDS011;50724;42.376;23.768;2024-02-21T12:46:34;7.05;;;3.08;;
64401;SDS011;50724;42.376;23.768;2024-02-21T12:49:36;5.40;;;2.60;;
64401;SDS011;50724;42.376;23.768;2024-02-21T12:52:37;4.57;;;2.13;;
64401;SDS011;50724;42.376;23.768;2024-02-21T12:55:37;4.93;;;2.05;;
64401;SDS011;50724;42.376;23.768;2024-02-21T12:58:38;5.15;;;2.28;;
64401;SDS011;50724;42.376;23.768;2024-02-21T13:01:39;4.53;;;1.98;;
64401;SDS011;50724;42.376;23.768;2024-02-21T13:04:39;4.28;;;1.75;;
64401;SDS011;50724;42.376;23.768;2024-02-21T13:07:41;3.67;;;1.75;;
64401;SDS011;50724;42.376;23.768;2024-02-21T13:10:41;5.85;;;1.95;;
64401;SDS011;50724;42.376;23.768;2024-02-21T13:13:42;4.53;;;2.20;;
64401;SDS011;50724;42.376;23.768;2024-02-21T13:16:42;6.32;;;2.30;;
64401;SDS011;50724;42.376;23.768;2024-02-21T13:19:43;5.43;;;2.05;;
64401;SDS011;50724;42.376;23.768;2024-02-21T13:22:43;4.65;;;1.92;;
64401;SDS011;50724;42.376;23.768;2024-02-21T13:25:44;4.50;;;2.20;;
64401;SDS011;50724;42.376;23.768;2024-02-21T13:28:45;6.20;;;2.40;;
64401;SDS011;50724;42.376;23.768;2024-02-21T13:31:48;6.18;;;2.47;;
64401;SDS011;50724;42.376;23.768;2024-02-21T13:34:49;4.85;;;2.08;;
64401;SDS011;50724;42.376;23.768;2024-02-21T13:40:52;6.00;;;2.33;;
64401;SDS011;50724;42.376;23.768;2024-02-21T13:43:54;4.10;;;2.00;;
64401;SDS011;50724;42.376;23.768;2024-02-21T13:46:54;4.65;;;2.10;;
64401;SDS011;50724;42.376;23.768;2024-02-21T13:49:54;6.35;;;2.42;;
64401;SDS011;50724;42.376;23.768;2024-02-21T13:52:55;5.20;;;2.22;;
64401;SDS011;50724;42.376;23.768;2024-02-21T13:55:56;6.07;;;2.80;;
64401;SDS011;50724;42.376;23.768;2024-02-21T13:58:59;5.97;;;2.63;;
64401;SDS011;50724;42.376;23.768;2024-02-21T14:02:00;5.28;;;2.35;;
64401;SDS011;50724;42.376;23.768;2024-02-21T14:05:01;7.47;;;3.10;;
64401;SDS011;50724;42.376;23.768;2024-02-21T14:08:05;5.40;;;2.42;;
64401;SDS011;50724;42.376;23.768;2024-02-21T14:11:15;6.00;;;2.10;;
64401;SDS011;50724;42.376;23.768;2024-02-21T14:14:16;5.78;;;3.00;;
64401;SDS011;50724;42.376;23.768;2024-02-21T14:17:16;6.97;;;3.17;;
64401;SDS011;50724;42.376;23.768;2024-02-21T14:20:16;7.82;;;2.95;;
64401;SDS011;50724;42.376;23.768;2024-02-21T14:23:17;6.68;;;3.35;;
64401;SDS011;50724;42.376;23.768;2024-02-21T14:26:17;7.97;;;3.20;;
64401;SDS011;50724;42.376;23.768;2024-02-21T14:29:18;6.85;;;3.55;;
64401;SDS011;50724;42.376;23.768;2024-02-21T14:32:18;7.53;;;3.45;;
64401;SDS011;50724;42.376;23.768;2024-02-21T14:35:20;7.47;;;3.70;;
64401;SDS011;50724;42.376;23.768;2024-02-21T14:38:20;8.95;;;3.42;;
64401;SDS011;50724;42.376;23.768;2024-02-21T14:41:21;6.93;;;3.17;;
64401;SDS011;50724;42.376;23.768;2024-02-21T14:44:21;6.05;;;3.50;;
64401;SDS011;50724;42.376;23.768;2024-02-21T14:47:21;5.65;;;2.72;;
64401;SDS011;50724;42.376;23.768;2024-02-21T14:50:22;5.88;;;2.75;;
64401;SDS011;50724;42.376;23.768;2024-02-21T14:53:23;7.28;;;3.35;;
64401;SDS011;50724;42.376;23.768;2024-02-21T14:56:24;5.97;;;2.70;;
64401;SDS011;50724;42.376;23.768;2024-02-21T14:59:24;5.95;;;2.63;;
64401;SDS011;50724;42.376;23.768;2024-02-21T15:02:25;5.57;;;2.88;;
64401;SDS011;50724;42.376;23.768;2024-02-21T15:05:27;6.10;;;3.08;;
64401;SDS011;50724;42.376;23.768;2024-02-21T15:08:28;6.10;;;2.92;;
64401;SDS011;50724;42.376;23.768;2024-02-21T15:11:29;6.68;;;3.20;;
64401;SDS011;50724;42.376;23.768;2024-02-21T15:14:30;7.35;;;3.28;;
64401;SDS011;50724;42.376;23.768;2024-02-21T15:17:30;6.68;;;2.60;;
64401;SDS011;50724;42.376;23.768;2024-02-21T15:20:30;5.18;;;2.55;;
64401;SDS011;50724;42.376;23.768;2024-02-21T15:23:40;7.00;;;2.67;;
64401;SDS011;50724;42.376;23.768;2024-02-21T15:26:40;6.80;;;3.30;;
64401;SDS011;50724;42.376;23.768;2024-02-21T15:29:41;5.07;;;2.50;;
64401;SDS011;50724;42.376;23.768;2024-02-21T15:32:42;5.65;;;2.28;;
64401;SDS011;50724;42.376;23.768;2024-02-21T15:35:45;5.20;;;2.50;;
64401;SDS011;50724;42.376;23.768;2024-02-21T15:38:45;6.43;;;2.70;;
64401;SDS011;50724;42.376;23.768;2024-02-21T15:41:46;7.22;;;2.88;;
64401;SDS011;50724;42.376;23.768;2024-02-21T15:44:46;8.55;;;3.60;;
64401;SDS011;50724;42.376;23.768;2024-02-21T15:47:47;7.97;;;3.75;;
64401;SDS011;50724;42.376;23.768;2024-02-21T15:50:48;7.55;;;3.63;;
64401;SDS011;50724;42.376;23.768;2024-02-21T15:53:48;9.23;;;4.68;;
64401;SDS011;50724;42.376;23.768;2024-02-21T15:56:49;10.98;;;5.68;;
64401;SDS011;50724;42.376;23.768;2024-02-21T15:59:50;13.02;;;5.72;;
64401;SDS011;50724;42.376;23.768;2024-02-21T16:02:54;10.90;;;4.05;;
64401;SDS011;50724;42.376;23.768;2024-02-21T16:06:12;12.63;;;5.57;;
64401;SDS011;50724;42.376;23.768;2024-02-21T16:12:13;13.63;;;6.10;;
64401;SDS011;50724;42.376;23.768;2024-02-21T16:15:14;12.57;;;5.68;;
64401;SDS011;50724;42.376;23.768;2024-02-21T16:18:15;12.27;;;5.80;;
64401;SDS011;50724;42.376;23.768;2024-02-21T16:21:20;12.05;;;5.50;;
64401;SDS011;50724;42.376;23.768;2024-02-21T16:24:20;11.73;;;5.30;;
64401;SDS011;50724;42.376;23.768;2024-02-21T16:27:21;9.88;;;5.03;;
64401;SDS011;50724;42.376;23.768;2024-02-21T16:30:21;9.88;;;4.78;;
64401;SDS011;50724;42.376;23.768;2024-02-21T16:33:23;12.77;;;4.97;;
64401;SDS011;50724;42.376;23.768;2024-02-21T16:36:27;9.05;;;4.72;;
64401;SDS011;50724;42.376;23.768;2024-02-21T16:39:27;12.20;;;4.90;;
64401;SDS011;50724;42.376;23.768;2024-02-21T16:42:28;8.95;;;4.50;;
64401;SDS011;50724;42.376;23.768;2024-02-21T16:45:28;11.13;;;4.50;;
64401;SDS011;50724;42.376;23.768;2024-02-21T16:48:29;11.00;;;5.32;;
64401;SDS011;50724;42.376;23.768;2024-02-21T16:51:29;9.40;;;4.55;;
64401;SDS011;50724;42.376;23.768;2024-02-21T16:54:30;9.57;;;4.68;;
64401;SDS011;50724;42.376;23.768;2024-02-21T16:57:30;10.25;;;4.95;;
64401;SDS011;50724;42.376;23.768;2024-02-21T17:00:31;11.50;;;5.00;;
64401;SDS011;50724;42.376;23.768;2024-02-21T17:03:34;11.32;;;5.43;;
64401;SDS011;50724;42.376;23.768;2024-02-21T17:06:35;11.88;;;5.00;;
64401;SDS011;50724;42.376;23.768;2024-02-21T17:09:45;10.38;;;4.82;;
64401;SDS011;50724;42.376;23.768;2024-02-21T17:12:45;9.55;;;4.57;;
64401;SDS011;50724;42.376;23.768;2024-02-21T17:15:46;11.15;;;5.05;;
64401;SDS011;50724;42.376;23.768;2024-02-21T17:18:48;11.50;;;4.63;;
64401;SDS011;50724;42.376;23.768;2024-02-21T17:21:48;9.18;;;4.45;;
64401;SDS011;50724;42.376;23.768;2024-02-21T17:24:49;10.52;;;5.07;;
64401;SDS011;50724;42.376;23.768;2024-02-21T17:27:49;12.30;;;4.35;;
64401;SDS011;50724;42.376;23.768;2024-02-21T17:30:50;7.57;;;3.97;;
64401;SDS011;50724;42.376;23.768;2024-02-21T17:33:50;9.60;;;4.25;;
64401;SDS011;50724;42.376;23.768;2024-02-21T17:36:51;8.23;;;4.70;;
64401;SDS011;50724;42.376;23.768;2024-02-21T17:39:51;9.30;;;4.15;;
64401;SDS011;50724;42.376;23.768;2024-02-21T17:42:52;8.50;;;4.05;;
64401;SDS011;50724;42.376;23.768;2024-02-21T17:45:53;7.70;;;3.55;;
64401;SDS011;50724;42.376;23.768;2024-02-21T17:48:56;10.10;;;3.70;;
64401;SDS011;50724;42.376;23.768;2024-02-21T17:51:56;7.25;;;3.70;;
64401;SDS011;50724;42.376;23.768;2024-02-21T17:54:57;7.57;;;3.42;;
64401;SDS011;50724;42.376;23.768;2024-02-21T17:57:57;7.03;;;3.55;;
64401;SDS011;50724;42.376;23.768;2024-02-21T18:00:58;9.85;;;3.85;;